Terminal Aerodrome Forecast
Issued by NWS

Home | Current Version | Previous Version | Graphics & Text | Print | Product List | Glossary On
Versions: 1 2 3 4 5 6 7 8 9 10 11 12 13 14 15 16
000
FTUS45 KGGW 071132
TAFOLF
TAF
KOLF 071132Z 0712/0812 28013KT P6SM BKN050
     FM080000 29009KT P6SM BKN050
     FM080600 28007KT P6SM BKN030=

USA.gov is the U.S. government's official web portal to all federal, state and local government web resources and services.